Time;durP1;ratioP1;P1;durP2;ratioP2;P2;SDS_P1;SDS_P2;PMS_P1;PMS_P2;Temp;Humidity;BMP_temperature;BMP_pressure;BME280_temperature;BME280_humidity;BME280_pressure;Samples;Min_cycle;Max_cycle;Signal;HPM_P1;HPM_P2
2022/01/29 00:00:20;;;;;;;352.00;331.30;;;6.80;99.90;;;;;;4390642;32;20537;-62
2022/01/29 00:02:47;;;;;;;355.67;336.50;;;6.90;99.90;;;;;;4392016;32;20563;-63
2022/01/29 00:05:13;;;;;;;357.23;336.87;;;6.80;99.90;;;;;;4390104;32;20171;-63
2022/01/29 00:07:42;;;;;;;360.20;340.60;;;6.80;99.90;;;;;;4392830;32;20494;-63
2022/01/29 00:10:12;;;;;;;358.97;339.20;;;6.90;99.90;;;;;;4395242;32;20234;-62
2022/01/29 00:12:39;;;;;;;342.77;323.13;;;6.90;99.90;;;;;;4398091;32;20635;-64
2022/01/29 00:15:07;;;;;;;346.23;326.80;;;6.90;99.90;;;;;;4408217;32;20137;-62
2022/01/29 00:17:37;;;;;;;351.63;331.90;;;6.90;99.90;;;;;;4407749;32;20159;-63
2022/01/29 00:20:04;;;;;;;335.97;317.10;;;6.90;99.90;;;;;;4394360;32;20168;-62
2022/01/29 00:22:34;;;;;;;345.63;326.73;;;6.90;99.90;;;;;;4377823;32;20154;-64
2022/01/29 00:25:01;;;;;;;335.57;316.93;;;6.90;99.90;;;;;;4378300;32;20132;-63
2022/01/29 00:27:34;;;;;;;347.63;328.07;;;6.90;99.90;;;;;;4384006;32;20162;-63
2022/01/29 00:30:05;;;;;;;351.00;331.10;;;6.90;99.90;;;;;;4390265;32;20210;-65
2022/01/29 00:32:32;;;;;;;370.30;349.13;;;6.90;99.90;;;;;;4394173;32;20171;-65
2022/01/29 00:34:59;;;;;;;365.33;344.97;;;6.90;99.90;;;;;;4393493;32;20206;-65
2022/01/29 00:37:28;;;;;;;363.20;342.50;;;6.80;99.90;;;;;;4387367;32;20171;-62
2022/01/29 00:39:55;;;;;;;377.87;356.47;;;6.80;99.90;;;;;;4389970;32;20167;-64
2022/01/29 00:42:23;;;;;;;373.07;351.07;;;6.80;99.90;;;;;;4392527;32;20529;-64
2022/01/29 00:44:52;;;;;;;374.27;353.53;;;6.80;99.90;;;;;;4384056;32;20493;-64
2022/01/29 00:47:19;;;;;;;363.00;342.83;;;6.90;99.90;;;;;;4392309;32;20171;-63
2022/01/29 00:49:47;;;;;;;369.60;349.23;;;6.90;99.90;;;;;;4402516;32;20157;-65
2022/01/29 00:52:14;;;;;;;390.50;368.50;;;6.90;99.90;;;;;;4387040;32;20234;-65
2022/01/29 00:54:43;;;;;;;378.67;357.73;;;6.90;99.90;;;;;;4388562;32;20163;-64
2022/01/29 00:57:10;;;;;;;376.47;355.50;;;6.90;99.90;;;;;;4390559;32;20160;-65
2022/01/29 00:59:38;;;;;;;381.67;360.20;;;6.90;99.90;;;;;;4388074;32;20194;-64
2022/01/29 01:02:08;;;;;;;378.60;357.57;;;6.90;99.90;;;;;;4387023;32;20148;-64
2022/01/29 01:04:38;;;;;;;391.20;370.50;;;6.90;99.90;;;;;;4392246;32;20160;-63
2022/01/29 01:07:06;;;;;;;412.23;389.47;;;6.90;99.90;;;;;;4395090;32;20487;-65
2022/01/29 01:09:34;;;;;;;359.60;339.80;;;7.00;99.90;;;;;;4407528;32;20159;-63
2022/01/29 01:12:01;;;;;;;362.30;342.33;;;7.00;99.90;;;;;;4387227;32;20148;-64
2022/01/29 01:14:29;;;;;;;391.40;369.10;;;7.00;99.90;;;;;;4377590;32;20146;-64
2022/01/29 01:16:56;;;;;;;389.17;368.20;;;6.90;99.90;;;;;;4377094;32;20204;-63
2022/01/29 01:19:27;;;;;;;385.23;363.47;;;6.90;99.90;;;;;;4402721;32;20170;-62
2022/01/29 01:21:57;;;;;;;385.53;365.00;;;7.00;99.90;;;;;;4390324;32;20152;-65
2022/01/29 01:24:26;;;;;;;394.57;373.03;;;7.00;99.90;;;;;;4376594;32;20579;-63
2022/01/29 01:26:54;;;;;;;406.07;384.33;;;7.00;99.90;;;;;;4389141;32;20144;-63
2022/01/29 01:29:23;;;;;;;380.13;359.10;;;7.00;99.90;;;;;;4392476;32;20557;-63
2022/01/29 01:31:50;;;;;;;382.97;362.63;;;7.00;99.90;;;;;;4386173;32;20149;-64
2022/01/29 01:34:22;;;;;;;383.97;363.37;;;7.00;99.90;;;;;;4376686;32;20145;-63
2022/01/29 01:36:54;;;;;;;391.23;370.40;;;7.00;99.90;;;;;;4389035;32;20144;-64
2022/01/29 01:39:26;;;;;;;391.67;370.50;;;7.00;99.90;;;;;;4392006;32;20130;-62
2022/01/29 01:41:57;;;;;;;368.07;348.37;;;7.00;99.90;;;;;;4387693;32;20206;-64
2022/01/29 01:44:33;;;;;;;386.67;365.40;;;7.00;99.90;;;;;;4393500;32;20148;-64
2022/01/29 01:47:00;;;;;;;384.27;363.87;;;7.00;99.90;;;;;;4406634;32;20132;-61
2022/01/29 01:49:27;;;;;;;383.13;362.63;;;7.00;99.90;;;;;;4407435;32;20136;-62
2022/01/29 01:51:55;;;;;;;401.43;379.40;;;6.90;99.90;;;;;;4396485;32;20179;-63
2022/01/29 01:54:24;;;;;;;405.53;383.03;;;7.00;99.90;;;;;;4401895;32;20529;-63
2022/01/29 01:56:51;;;;;;;402.93;381.07;;;7.00;99.90;;;;;;4407010;32;20602;-62
2022/01/29 01:59:18;;;;;;;399.77;377.63;;;7.00;99.90;;;;;;4406647;32;20159;-64
2022/01/29 02:01:45;;;;;;;404.63;382.53;;;7.10;99.90;;;;;;4392090;32;20148;-63
2022/01/29 02:04:12;;;;;;;417.83;395.50;;;7.00;99.90;;;;;;4393232;32;20160;-60
2022/01/29 02:06:39;;;;;;;419.33;396.67;;;7.00;99.90;;;;;;4391497;32;20153;-62
2022/01/29 02:09:07;;;;;;;411.77;389.50;;;7.00;99.90;;;;;;4391410;32;20583;-63
2022/01/29 02:11:38;;;;;;;440.27;416.50;;;6.90;99.90;;;;;;4391301;32;20162;-62
2022/01/29 02:14:04;;;;;;;444.47;421.07;;;7.00;99.90;;;;;;4382044;32;20171;-61
2022/01/29 02:16:32;;;;;;;466.50;441.70;;;7.10;99.90;;;;;;4392470;32;20168;-62
2022/01/29 02:18:59;;;;;;;467.37;443.00;;;7.10;99.90;;;;;;4391860;32;20545;-62
2022/01/29 02:21:28;;;;;;;449.67;426.60;;;7.10;99.90;;;;;;4393546;32;20168;-62
2022/01/29 02:23:56;;;;;;;454.80;431.73;;;7.10;99.90;;;;;;4383145;32;20561;-62
2022/01/29 02:26:23;;;;;;;459.43;435.57;;;7.10;99.90;;;;;;4376112;32;20153;-63
2022/01/29 02:28:50;;;;;;;463.20;439.30;;;7.10;99.90;;;;;;4375774;32;20182;-62
2022/01/29 02:31:20;;;;;;;485.00;459.53;;;7.10;99.90;;;;;;4376045;32;20140;-63
2022/01/29 02:33:47;;;;;;;466.37;442.10;;;7.20;99.90;;;;;;4383782;32;20153;-63
2022/01/29 02:36:14;;;;;;;479.83;454.90;;;7.20;99.90;;;;;;4391094;32;20175;-63
2022/01/29 02:38:43;;;;;;;473.10;448.67;;;7.20;99.90;;;;;;4387729;32;20216;-63
2022/01/29 02:41:10;;;;;;;486.17;460.63;;;7.20;99.90;;;;;;4391256;32;20148;-62
2022/01/29 02:43:43;;;;;;;473.97;449.57;;;7.30;99.90;;;;;;4391354;32;20166;-63
2022/01/29 02:46:20;;;;;;;498.97;473.13;;;7.30;99.90;;;;;;4376353;32;20624;-65
2022/01/29 02:48:49;;;;;;;465.37;441.50;;;7.30;99.90;;;;;;4375843;32;20196;-62
2022/01/29 02:51:17;;;;;;;473.37;449.07;;;7.30;99.90;;;;;;4375908;32;20154;-64
2022/01/29 02:53:45;;;;;;;496.23;470.73;;;7.30;99.90;;;;;;4376045;32;20203;-63
2022/01/29 02:56:12;;;;;;;489.73;463.93;;;7.30;99.90;;;;;;4380769;32;20232;-65
2022/01/29 02:58:40;;;;;;;474.83;449.63;;;7.40;99.90;;;;;;4377001;32;20211;-64
2022/01/29 03:01:08;;;;;;;501.03;475.23;;;7.40;99.90;;;;;;4331098;32;1698188;-62
2022/01/29 03:03:35;;;;;;;482.70;457.13;;;7.40;99.90;;;;;;4415200;32;20155;-65
2022/01/29 03:06:07;;;;;;;517.70;490.07;;;7.40;99.90;;;;;;4405662;32;20178;-64
2022/01/29 03:08:38;;;;;;;517.63;490.00;;;7.40;99.90;;;;;;4405746;32;20197;-62
2022/01/29 03:11:08;;;;;;;509.93;482.07;;;7.50;99.90;;;;;;4405545;32;20151;-63
2022/01/29 03:13:35;;;;;;;518.30;490.70;;;7.50;99.90;;;;;;4403582;32;20188;-64
2022/01/29 03:16:01;;;;;;;512.07;484.10;;;7.50;99.90;;;;;;4394127;32;20174;-62
2022/01/29 03:18:28;;;;;;;522.90;495.23;;;7.50;99.90;;;;;;4406796;32;20166;-64
2022/01/29 03:20:55;;;;;;;531.20;502.43;;;7.60;99.90;;;;;;4410338;32;20152;-63
2022/01/29 03:23:25;;;;;;;529.57;500.67;;;7.60;99.90;;;;;;4420907;32;20197;-65
2022/01/29 03:25:52;;;;;;;509.87;482.00;;;7.70;99.90;;;;;;4404506;32;20156;-65
2022/01/29 03:28:23;;;;;;;517.83;490.23;;;7.70;99.90;;;;;;4405981;32;20145;-64
2022/01/29 03:30:50;;;;;;;521.60;493.50;;;7.60;99.90;;;;;;4405506;32;20162;-65
2022/01/29 03:33:17;;;;;;;518.07;490.00;;;7.70;99.90;;;;;;4406566;32;20195;-64
2022/01/29 03:35:44;;;;;;;524.20;495.97;;;7.70;99.90;;;;;;4393709;32;20256;-63
2022/01/29 03:38:14;;;;;;;525.07;496.17;;;7.80;99.90;;;;;;4390593;32;20152;-63
2022/01/29 03:40:42;;;;;;;537.50;507.53;;;7.80;99.90;;;;;;4390577;32;20140;-63
2022/01/29 03:43:12;;;;;;;526.67;497.63;;;7.80;99.90;;;;;;4390315;32;20163;-63
2022/01/29 03:45:40;;;;;;;533.77;503.93;;;7.90;99.90;;;;;;4401152;32;20201;-65
2022/01/29 03:48:07;;;;;;;513.67;485.53;;;7.80;99.90;;;;;;4406424;32;20148;-64
2022/01/29 03:50:35;;;;;;;540.00;510.30;;;7.80;99.90;;;;;;4408304;32;20445;-62
2022/01/29 03:53:02;;;;;;;524.97;497.33;;;7.80;99.90;;;;;;4408523;32;20189;-62
2022/01/29 03:55:30;;;;;;;537.07;508.20;;;7.80;99.90;;;;;;4407252;32;20178;-63
2022/01/29 03:57:57;;;;;;;546.07;516.23;;;7.90;99.90;;;;;;4393210;32;20175;-63
2022/01/29 04:00:27;;;;;;;550.63;520.97;;;7.90;99.90;;;;;;4393367;32;20203;-63
2022/01/29 04:02:55;;;;;;;524.00;495.60;;;7.90;99.90;;;;;;4396182;32;20196;-64
2022/01/29 04:05:22;;;;;;;521.50;493.77;;;7.90;99.90;;;;;;4408566;32;20178;-64
2022/01/29 04:07:49;;;;;;;529.10;500.33;;;8.00;99.90;;;;;;4393092;32;20148;-63
2022/01/29 04:10:20;;;;;;;541.47;513.00;;;8.00;99.90;;;;;;4393199;32;20148;-64
2022/01/29 04:12:52;;;;;;;520.70;492.37;;;8.00;99.90;;;;;;4393147;32;20187;-63
2022/01/29 04:15:19;;;;;;;518.13;489.87;;;8.00;99.90;;;;;;4393107;32;20205;-64
2022/01/29 04:17:46;;;;;;;525.00;496.83;;;8.00;99.90;;;;;;4406341;32;20158;-64
2022/01/29 04:20:14;;;;;;;527.60;499.23;;;8.00;99.90;;;;;;4408133;32;20560;-63
2022/01/29 04:22:41;;;;;;;532.93;503.30;;;8.00;99.90;;;;;;4408637;32;20551;-63
2022/01/29 04:25:08;;;;;;;501.57;475.33;;;8.00;99.90;;;;;;4407797;32;20157;-62
2022/01/29 04:27:39;;;;;;;522.77;495.33;;;8.10;99.90;;;;;;4393896;32;20144;-64
2022/01/29 04:30:11;;;;;;;513.10;485.67;;;8.10;99.90;;;;;;4392893;32;20176;-64
2022/01/29 04:32:59;;;;;;;522.03;493.03;;;8.20;99.90;;;;;;4411214;32;20148;-64
2022/01/29 04:35:28;;;;;;;505.03;478.27;;;8.20;99.90;;;;;;4420128;32;20140;-63
2022/01/29 04:37:55;;;;;;;505.43;479.07;;;8.20;99.90;;;;;;4416158;32;20151;-64
2022/01/29 04:40:22;;;;;;;546.03;517.53;;;8.20;99.90;;;;;;4413440;32;20174;-65
2022/01/29 04:42:49;;;;;;;525.87;498.60;;;8.20;99.90;;;;;;4409139;32;20160;-63
2022/01/29 04:45:16;;;;;;;524.40;496.07;;;8.20;99.90;;;;;;4422976;32;20612;-64
2022/01/29 04:47:44;;;;;;;499.73;473.37;;;8.20;99.90;;;;;;4405341;32;20572;-63
2022/01/29 04:50:11;;;;;;;516.63;489.60;;;8.30;99.90;;;;;;4408131;32;20164;-62
2022/01/29 04:52:40;;;;;;;516.77;490.37;;;8.30;99.90;;;;;;4408475;32;20153;-63
2022/01/29 04:55:09;;;;;;;513.50;486.80;;;8.30;99.90;;;;;;4407534;32;20170;-64
2022/01/29 04:57:39;;;;;;;509.57;483.27;;;8.30;99.90;;;;;;4397085;32;20157;-63
2022/01/29 05:00:09;;;;;;;497.00;471.13;;;8.40;99.90;;;;;;4390984;32;20152;-64
2022/01/29 05:02:36;;;;;;;507.67;481.97;;;8.30;99.90;;;;;;4405920;32;20623;-64
2022/01/29 05:05:03;;;;;;;512.97;486.80;;;8.30;99.90;;;;;;4408268;32;20166;-64
2022/01/29 05:07:30;;;;;;;492.57;466.50;;;8.40;99.90;;;;;;4406256;32;20156;-63
2022/01/29 05:09:59;;;;;;;485.27;460.83;;;8.40;99.90;;;;;;4407643;32;20148;-62
2022/01/29 05:12:31;;;;;;;502.77;476.53;;;8.50;99.90;;;;;;4421733;32;20156;-62
2022/01/29 05:15:10;;;;;;;507.90;481.40;;;8.40;99.90;;;;;;4421261;32;20156;-63
2022/01/29 05:28:39;;;;;;;507.37;481.77;;;8.40;99.90;;;;;;4395704;32;20187;-62
2022/01/29 05:31:06;;;;;;;496.83;471.90;;;8.50;99.90;;;;;;4422316;32;20150;-63
2022/01/29 05:33:36;;;;;;;499.90;475.13;;;8.50;99.90;;;;;;4422546;32;20483;-63
2022/01/29 05:36:03;;;;;;;495.93;470.90;;;8.50;99.90;;;;;;4422076;32;20162;-63
2022/01/29 05:38:32;;;;;;;507.30;481.97;;;8.50;99.90;;;;;;4408740;32;20152;-63
2022/01/29 05:41:02;;;;;;;482.80;458.63;;;8.50;99.90;;;;;;4407041;32;20196;-64
2022/01/29 05:43:33;;;;;;;492.70;467.70;;;8.60;99.90;;;;;;4406989;32;20140;-63
2022/01/29 05:46:00;;;;;;;468.73;445.47;;;8.60;99.90;;;;;;4406927;32;20167;-63
2022/01/29 05:48:27;;;;;;;489.20;465.03;;;8.60;99.90;;;;;;4405272;32;20167;-62
2022/01/29 05:50:55;;;;;;;498.10;473.20;;;8.60;99.90;;;;;;4422030;32;20479;-63
2022/01/29 05:53:24;;;;;;;513.53;488.23;;;8.60;99.90;;;;;;4419550;32;20218;-63
2022/01/29 05:55:51;;;;;;;491.37;467.27;;;8.60;99.90;;;;;;4406853;32;20209;-64
2022/01/29 05:58:19;;;;;;;495.70;471.57;;;8.60;99.90;;;;;;4403936;32;20154;-63
2022/01/29 06:00:46;;;;;;;480.93;456.80;;;8.60;99.90;;;;;;4406900;32;20584;-64
2022/01/29 06:03:13;;;;;;;478.83;455.07;;;8.70;99.90;;;;;;4406292;32;20191;-63
2022/01/29 06:05:42;;;;;;;467.27;444.13;;;8.70;99.90;;;;;;4407877;32;20568;-64
2022/01/29 06:08:09;;;;;;;458.13;435.70;;;8.60;99.90;;;;;;4407890;32;20151;-62
2022/01/29 06:10:36;;;;;;;462.57;439.53;;;8.70;99.90;;;;;;4421546;32;20144;-63
2022/01/29 06:13:05;;;;;;;483.03;459.80;;;8.70;99.90;;;;;;4400579;32;20599;-63
2022/01/29 06:15:39;;;;;;;443.67;422.37;;;8.70;99.90;;;;;;4421666;32;20171;-64
2022/01/29 06:18:11;;;;;;;446.93;424.57;;;8.60;99.90;;;;;;4415958;32;20244;-62
2022/01/29 06:20:38;;;;;;;463.87;441.20;;;8.60;99.90;;;;;;4391212;32;20581;-64
2022/01/29 06:23:06;;;;;;;479.70;456.07;;;8.60;99.90;;;;;;4391084;32;20565;-64
2022/01/29 06:25:33;;;;;;;511.50;485.80;;;8.50;99.90;;;;;;4391145;32;20144;-63
2022/01/29 06:28:01;;;;;;;504.90;479.73;;;8.50;99.90;;;;;;4394784;32;20626;-64
2022/01/29 06:30:28;;;;;;;525.90;499.23;;;8.50;99.90;;;;;;4406506;32;20155;-63
2022/01/29 06:32:56;;;;;;;519.10;493.30;;;8.50;99.90;;;;;;4406853;32;20188;-62
2022/01/29 06:35:23;;;;;;;518.20;491.73;;;8.50;99.90;;;;;;4406328;32;20145;-64
2022/01/29 06:37:50;;;;;;;500.53;475.17;;;8.50;99.90;;;;;;4406126;32;20140;-62
2022/01/29 06:40:17;;;;;;;520.13;493.80;;;8.40;99.90;;;;;;4402687;32;20572;-62
2022/01/29 06:42:44;;;;;;;517.13;491.03;;;8.50;99.90;;;;;;4406758;32;20256;-64
2022/01/29 06:45:11;;;;;;;529.73;502.00;;;8.50;99.90;;;;;;4405930;32;20233;-64
2022/01/29 06:47:38;;;;;;;543.73;514.27;;;8.40;99.90;;;;;;4408160;32;20139;-65
2022/01/29 06:50:10;;;;;;;541.73;513.90;;;8.50;99.90;;;;;;4401647;32;20221;-63
2022/01/29 06:52:37;;;;;;;537.83;510.00;;;8.50;99.90;;;;;;4393253;32;20216;-63
2022/01/29 06:55:04;;;;;;;517.60;490.67;;;8.50;99.90;;;;;;4406380;32;20201;-63
2022/01/29 06:57:33;;;;;;;542.57;514.53;;;8.50;99.90;;;;;;4413752;32;20230;-62
2022/01/29 07:00:02;;;;;;;540.70;512.30;;;8.50;99.90;;;;;;4412482;32;20163;-63
2022/01/29 07:02:28;;;;;;;563.43;533.73;;;8.50;99.90;;;;;;4412772;32;20646;-63
2022/01/29 07:04:56;;;;;;;295.53;280.70;;;8.50;99.90;;;;;;4411528;32;20212;-62
2022/01/29 07:07:27;;;;;;;320.23;304.53;;;8.40;99.90;;;;;;4416960;32;20212;-63
2022/01/29 07:09:57;;;;;;;351.03;333.63;;;8.50;99.90;;;;;;4413661;32;20532;-62
2022/01/29 07:12:29;;;;;;;335.83;320.10;;;8.40;99.90;;;;;;4411204;32;20140;-65
2022/01/29 07:14:56;;;;;;;365.67;348.43;;;8.50;99.90;;;;;;4411237;32;20651;-66
2022/01/29 07:17:24;;;;;;;367.43;349.67;;;8.50;99.90;;;;;;4410552;32;20205;-62
2022/01/29 07:19:52;;;;;;;376.50;358.23;;;8.50;99.90;;;;;;4410213;32;20271;-65
2022/01/29 07:22:25;;;;;;;386.73;367.57;;;8.50;99.90;;;;;;4410461;32;20467;-62
2022/01/29 07:24:52;;;;;;;387.03;368.17;;;8.60;99.90;;;;;;4415727;32;20198;-62
2022/01/29 07:27:35;;;;;;;403.77;384.23;;;8.60;99.90;;;;;;4412113;32;20164;-62
2022/01/29 07:30:03;;;;;;;392.53;372.73;;;8.60;99.90;;;;;;4407162;32;20210;-65
2022/01/29 07:32:29;;;;;;;408.07;387.80;;;8.60;99.90;;;;;;4405647;32;20191;-62
2022/01/29 07:34:59;;;;;;;418.17;397.80;;;8.60;99.90;;;;;;4412686;32;20175;-63
2022/01/29 07:37:27;;;;;;;414.93;394.07;;;8.60;99.90;;;;;;4408741;32;20147;-62
2022/01/29 07:39:56;;;;;;;425.47;404.03;;;8.60;99.90;;;;;;4411681;32;20169;-63
2022/01/29 07:42:24;;;;;;;431.47;409.97;;;8.60;99.90;;;;;;4410262;32;20152;-63
2022/01/29 07:44:52;;;;;;;431.23;409.90;;;8.60;99.90;;;;;;4409992;32;20207;-63
2022/01/29 07:47:19;;;;;;;401.67;381.63;;;8.60;99.90;;;;;;4410251;32;20162;-63
2022/01/29 07:49:55;;;;;;;425.73;404.93;;;8.60;99.90;;;;;;4409808;32;20209;-62
2022/01/29 07:52:23;;;;;;;396.17;376.27;;;8.70;99.90;;;;;;4411523;32;20150;-62
2022/01/29 07:54:52;;;;;;;392.57;373.33;;;8.80;99.90;;;;;;4409132;32;20198;-63
2022/01/29 07:57:21;;;;;;;394.00;374.57;;;8.70;99.90;;;;;;4409971;32;20155;-62
2022/01/29 07:59:48;;;;;;;399.40;379.83;;;8.70;99.90;;;;;;4411824;32;20553;-62
2022/01/29 08:02:15;;;;;;;391.67;372.40;;;8.70;99.90;;;;;;4406861;32;20197;-63
2022/01/29 08:04:47;;;;;;;406.47;386.27;;;8.80;99.90;;;;;;4412511;32;20194;-63
2022/01/29 08:07:15;;;;;;;414.80;394.33;;;8.80;99.90;;;;;;4412966;32;20159;-63
2022/01/29 08:09:42;;;;;;;443.40;421.17;;;8.80;99.90;;;;;;4412173;32;20185;-63
2022/01/29 08:12:12;;;;;;;437.37;416.17;;;8.80;99.90;;;;;;4410106;32;20149;-63
2022/01/29 08:14:41;;;;;;;433.00;411.33;;;8.80;99.90;;;;;;4410708;32;20603;-63
2022/01/29 08:17:08;;;;;;;437.93;416.37;;;8.90;99.90;;;;;;4412754;32;20153;-63
2022/01/29 08:19:35;;;;;;;439.73;418.57;;;8.90;99.90;;;;;;4414468;32;20211;-64
2022/01/29 08:22:05;;;;;;;433.73;412.60;;;8.90;99.90;;;;;;4409669;32;20215;-63
2022/01/29 08:24:32;;;;;;;442.37;419.70;;;8.90;99.90;;;;;;4410773;32;20181;-63
2022/01/29 08:27:00;;;;;;;441.77;420.83;;;8.90;99.90;;;;;;4412273;32;20165;-63
2022/01/29 08:29:28;;;;;;;457.17;434.90;;;8.90;99.90;;;;;;4410704;32;20147;-63
2022/01/29 08:31:57;;;;;;;457.97;435.53;;;9.00;99.90;;;;;;4409346;32;20177;-63
2022/01/29 08:34:30;;;;;;;461.97;439.07;;;8.90;99.90;;;;;;4412665;32;20162;-63
2022/01/29 08:37:01;;;;;;;435.97;414.93;;;9.00;99.90;;;;;;4411883;32;20463;-63
2022/01/29 08:39:28;;;;;;;448.97;426.40;;;9.00;99.90;;;;;;4415405;32;20166;-63
2022/01/29 08:41:55;;;;;;;446.03;424.97;;;9.00;99.90;;;;;;4410625;32;20254;-63
2022/01/29 08:44:22;;;;;;;453.47;431.33;;;9.00;99.90;;;;;;4415788;32;20170;-63
2022/01/29 08:46:57;;;;;;;434.50;413.63;;;9.00;99.90;;;;;;4413135;32;20569;-63
2022/01/29 08:49:27;;;;;;;443.90;422.60;;;9.10;99.90;;;;;;4412265;32;20153;-63
2022/01/29 08:51:55;;;;;;;437.90;416.73;;;9.10;99.90;;;;;;4412535;32;20157;-63
2022/01/29 08:54:22;;;;;;;432.73;411.60;;;9.10;99.90;;;;;;4414897;32;20166;-65
2022/01/29 08:56:49;;;;;;;459.23;436.40;;;9.20;99.90;;;;;;4414763;32;20155;-64
2022/01/29 08:59:17;;;;;;;445.10;423.83;;;9.10;99.90;;;;;;4411572;32;20205;-62
2022/01/29 09:01:46;;;;;;;456.77;434.50;;;9.20;99.90;;;;;;4414399;32;20162;-65
2022/01/29 09:04:15;;;;;;;433.63;412.87;;;9.20;99.90;;;;;;4414837;32;20155;-64
2022/01/29 09:06:42;;;;;;;414.97;395.50;;;9.20;99.90;;;;;;4414828;32;20176;-65
2022/01/29 09:09:09;;;;;;;442.23;420.60;;;9.20;99.90;;;;;;4410865;32;20154;-64
2022/01/29 09:11:37;;;;;;;432.57;411.77;;;9.20;99.90;;;;;;4414206;32;20603;-66
2022/01/29 09:14:04;;;;;;;433.90;412.40;;;9.20;99.90;;;;;;4406827;32;20155;-63
2022/01/29 09:16:31;;;;;;;423.60;403.43;;;9.20;99.90;;;;;;4407409;32;20170;-64
2022/01/29 09:19:05;;;;;;;430.57;409.87;;;9.20;99.90;;;;;;4409571;32;20182;-63
2022/01/29 09:21:44;;;;;;;418.33;398.83;;;9.30;99.90;;;;;;4414492;32;20151;-63
2022/01/29 09:24:15;;;;;;;420.63;401.40;;;9.30;99.90;;;;;;4412620;32;20254;-65
2022/01/29 09:26:49;;;;;;;433.90;412.97;;;9.40;99.90;;;;;;4408944;32;20197;-64
2022/01/29 09:29:18;;;;;;;419.53;400.17;;;9.40;99.90;;;;;;4411851;32;20578;-62
2022/01/29 09:31:51;;;;;;;416.93;397.90;;;9.40;99.90;;;;;;4414160;32;20158;-65
2022/01/29 09:34:20;;;;;;;408.43;389.03;;;9.40;99.90;;;;;;4411168;32;20603;-65
2022/01/29 09:36:55;;;;;;;397.40;379.17;;;9.50;99.90;;;;;;4422188;32;20177;-65
2022/01/29 09:42:24;;;;;;;403.50;384.20;;;9.50;99.90;;;;;;4414680;32;20217;-64
2022/01/29 09:45:04;;;;;;;382.70;365.33;;;9.50;99.90;;;;;;4414225;32;20158;-64
2022/01/29 09:47:34;;;;;;;378.63;361.03;;;9.50;99.90;;;;;;4412794;32;20628;-65
2022/01/29 09:50:02;;;;;;;408.33;389.97;;;9.50;99.90;;;;;;4406846;32;20608;-65
2022/01/29 09:52:52;;;;;;;388.27;369.80;;;9.60;99.90;;;;;;4408242;32;20152;-66
2022/01/29 09:55:29;;;;;;;389.03;371.20;;;9.70;99.90;;;;;;4405834;32;20247;-66
2022/01/29 09:58:04;;;;;;;399.13;379.27;;;9.70;99.90;;;;;;4413413;32;20155;-65
2022/01/29 10:00:48;;;;;;;390.57;372.67;;;9.80;99.90;;;;;;4410263;32;20225;-63
2022/01/29 10:03:25;;;;;;;387.77;369.63;;;9.80;99.90;;;;;;4407942;32;20163;-65
2022/01/29 10:05:56;;;;;;;393.53;375.87;;;9.80;99.90;;;;;;4411408;32;20148;-66
2022/01/29 10:08:30;;;;;;;402.43;384.53;;;9.90;99.90;;;;;;4412650;32;20219;-64
2022/01/29 10:10:59;;;;;;;419.10;399.43;;;10.00;99.90;;;;;;4409151;32;20215;-67
2022/01/29 10:13:32;;;;;;;402.53;384.73;;;10.10;99.90;;;;;;4411189;32;20639;-66
2022/01/29 10:16:12;;;;;;;388.53;371.53;;;10.10;99.90;;;;;;4412121;32;20200;-68
2022/01/29 10:18:41;;;;;;;382.33;365.17;;;10.20;99.90;;;;;;4413533;32;20192;-67
2022/01/29 10:21:14;;;;;;;390.67;373.23;;;10.30;99.90;;;;;;4411917;32;20182;-65
2022/01/29 10:23:46;;;;;;;389.33;371.67;;;10.40;99.90;;;;;;4411905;32;20173;-67
2022/01/29 10:26:27;;;;;;;385.33;368.13;;;10.40;99.90;;;;;;4405868;32;20179;-67
2022/01/29 10:28:59;;;;;;;385.67;368.57;;;10.50;99.90;;;;;;4413012;32;20186;-64
2022/01/29 10:31:39;;;;;;;385.17;367.57;;;10.50;99.90;;;;;;4410528;32;20147;-67
2022/01/29 10:34:21;;;;;;;366.23;350.07;;;10.50;99.90;;;;;;4411245;32;20599;-67
2022/01/29 10:37:17;;;;;;;368.47;352.70;;;10.60;99.90;;;;;;4411222;32;20163;-65
2022/01/29 10:40:11;;;;;;;361.27;345.33;;;10.60;99.90;;;;;;4411876;32;20168;-65
2022/01/29 10:42:56;;;;;;;363.83;347.93;;;10.60;99.90;;;;;;4410642;32;20185;-65
2022/01/29 10:45:37;;;;;;;360.43;344.60;;;10.70;99.90;;;;;;4411948;32;20266;-66
2022/01/29 10:48:06;;;;;;;358.83;342.67;;;10.90;99.90;;;;;;4412877;32;20580;-66
2022/01/29 10:50:34;;;;;;;361.10;345.30;;;11.00;99.90;;;;;;4407544;32;20576;-65
2022/01/29 10:53:26;;;;;;;368.17;351.63;;;11.10;99.90;;;;;;4410393;32;20206;-65
2022/01/29 10:56:03;;;;;;;370.10;354.20;;;11.20;99.90;;;;;;4406169;32;20156;-65
2022/01/29 10:58:30;;;;;;;332.23;318.00;;;11.60;99.90;;;;;;4405275;32;20252;-66
2022/01/29 11:01:16;;;;;;;320.10;306.10;;;11.80;99.90;;;;;;4404969;32;20191;-65
2022/01/29 11:03:46;;;;;;;320.37;306.80;;;12.00;99.90;;;;;;4403263;32;20231;-67
2022/01/29 11:06:16;;;;;;;304.83;292.03;;;11.90;99.90;;;;;;4400377;32;20205;-65
2022/01/29 11:08:45;;;;;;;259.40;248.47;;;11.90;99.90;;;;;;4402031;32;20230;-65
2022/01/29 11:11:17;;;;;;;254.37;243.83;;;11.90;99.90;;;;;;4403639;32;20246;-67
2022/01/29 11:13:53;;;;;;;267.77;256.97;;;11.70;99.90;;;;;;4389804;32;20176;-66
2022/01/29 11:16:31;;;;;;;260.33;249.67;;;11.60;99.90;;;;;;4395527;32;20194;-65
2022/01/29 11:19:24;;;;;;;264.77;253.63;;;11.50;99.90;;;;;;4400842;32;20606;-66
2022/01/29 11:22:01;;;;;;;240.83;230.30;;;11.40;99.90;;;;;;4403375;32;20166;-68
2022/01/29 11:24:59;;;;;;;;;;;;;;;;;;;;;
2022/01/29 11:27:33;;;;;;;249.60;239.40;;;11.40;99.90;;;;;;4401532;32;20201;-65
2022/01/29 11:30:14;;;;;;;252.70;242.37;;;11.50;99.90;;;;;;4404115;32;20211;-66
2022/01/29 11:32:42;;;;;;;284.60;272.77;;;11.40;99.90;;;;;;4402116;32;20206;-65
2022/01/29 11:35:12;;;;;;;247.93;237.40;;;11.50;99.90;;;;;;4407276;32;20219;-64
2022/01/29 11:37:50;;;;;;;259.40;248.67;;;11.50;99.90;;;;;;4403739;32;20164;-67
2022/01/29 11:40:21;;;;;;;260.57;249.80;;;11.50;99.90;;;;;;4404650;32;20182;-66
2022/01/29 11:43:27;;;;;;;274.17;262.57;;;11.50;99.90;;;;;;4401069;32;20218;-65
2022/01/29 11:45:58;;;;;;;273.03;261.83;;;11.50;99.90;;;;;;4356460;32;20152;-65
2022/01/29 11:51:43;;;;;;;236.67;226.90;;;11.80;99.90;;;;;;4356519;33;20175;-68
2022/01/29 11:54:11;;;;;;;257.93;246.27;;;11.90;99.90;;;;;;4356503;32;20179;-65
2022/01/29 11:56:40;;;;;;;257.03;246.33;;;11.80;99.90;;;;;;4355964;33;20179;-67
2022/01/29 11:59:30;;;;;;;272.43;261.07;;;11.70;99.90;;;;;;4356413;32;20258;-68
2022/01/29 12:02:01;;;;;;;252.33;241.70;;;11.80;99.90;;;;;;4361782;32;20704;-66
2022/01/29 12:05:04;;;;;;;248.10;237.57;;;11.80;99.90;;;;;;4363078;32;20305;-65
2022/01/29 12:07:34;;;;;;;260.47;249.80;;;11.80;99.90;;;;;;4356884;32;20160;-65
2022/01/29 12:10:05;;;;;;;257.47;246.77;;;12.00;99.90;;;;;;4362934;32;20234;-65
2022/01/29 12:12:44;;;;;;;232.90;223.37;;;12.10;99.90;;;;;;4362129;32;20168;-65
2022/01/29 12:15:39;;;;;;;230.57;221.07;;;12.10;99.90;;;;;;4359496;32;20228;-66
2022/01/29 12:18:27;;;;;;;223.93;214.40;;;11.90;99.90;;;;;;4364668;32;20458;-65
2022/01/29 12:20:55;;;;;;;237.17;227.33;;;12.00;99.90;;;;;;4361098;32;20158;-66
2022/01/29 12:23:26;;;;;;;244.07;233.73;;;12.00;99.90;;;;;;4386023;32;20148;-65
2022/01/29 12:25:56;;;;;;;252.43;241.57;;;12.10;99.90;;;;;;4393619;32;20159;-67
2022/01/29 12:28:23;;;;;;;262.03;251.30;;;12.10;99.90;;;;;;4393105;32;20182;-65
2022/01/29 12:30:54;;;;;;;264.27;253.47;;;12.10;99.90;;;;;;4394147;32;20141;-65
2022/01/29 12:33:24;;;;;;;244.73;234.53;;;12.20;99.90;;;;;;4405953;32;20140;-67
2022/01/29 12:35:57;;;;;;;264.87;253.80;;;12.10;99.90;;;;;;4408020;32;20144;-65
2022/01/29 12:38:27;;;;;;;240.07;230.13;;;12.20;99.90;;;;;;4407892;32;20128;-65
2022/01/29 12:40:56;;;;;;;241.23;230.83;;;12.20;99.90;;;;;;4409054;32;20144;-65
2022/01/29 12:43:34;;;;;;;249.27;238.77;;;12.30;99.90;;;;;;4392401;32;20175;-65
2022/01/29 12:46:10;;;;;;;236.53;226.43;;;12.40;99.90;;;;;;4394064;32;20132;-65
2022/01/29 12:48:38;;;;;;;258.67;248.03;;;12.30;99.90;;;;;;4401941;32;20170;-65